Fairbanks International, AK

4:32 AM AKDT on September 29, 2016 (GMT -0800)
APRSWXNET | | Change Station

Elev 597 ft 64.86 °N, 147.85 °W | Updated 26 minutes ago

Overcast
Overcast
40 °F
Feels Like 40 °F
N
1
Wind Variable Wind from SW
Gusts 0.0 mph

Today
High -- | Low -- °F
--% Chance of Precip.
Yesterday
High -- | Low -- °F
Precip. -- in
Pressure 30.47 in
Visibility 10.0 miles
Clouds Mostly Cloudy 3500 ft
Overcast 7000 ft
Windchill 40 °F
Dew Point 39 °F
Humidity 96%
Rainfall in
Snow Depth Not available.
7:57 AM 7:24 PM
Waning Crescent, 2% visible
METAR PAFA 291153Z 25007KT 10SM BKN035 OVC070 06/03 A3044 RMK AO2 SLP316 60003 70018 T00610033 10072 20044 53024 $
Pressure 30.47 in
Visibility 10.0 miles
Clouds Mostly Cloudy 3500 ft
Overcast 7000 ft
Windchill 40 °F
Dew Point 39 °F
Humidity 96%
Rainfall in
Snow Depth Not available.
7:57 AM 7:24 PM
Waning Crescent, 2% visible
METAR PAFA 291153Z 25007KT 10SM BKN035 OVC070 06/03 A3044 RMK AO2 SLP316 60003 70018 T00610033 10072 20044 53024 $

10-Day Weather Forecast

Almanac

Astronomy

Sep. 29, 2016 Rise Set
Actual Time
Civil Twilight
Nautical Twilight
Astronomical Twilight
Moon
Length of Visible Light
Length of Day
Tomorrow will be .
, % of the Moon is Illuminated

Today's Extremes

State Highs State Lows

Community

WunderPhotos

Upload Photos

1,942,466 photos uploaded!

WunderBlog® & News

Nearby

Air Quality

  Air Quality AQ Index Pollutant
Not available.

Snow Depth

Station Depth Elevation

Earthquake Activity

City Distance Mag. Time & Date
Minimum magnitude displayed is 2.5.

Coastal Water Temperatures

Place Temperature

Stations

Nearby Weather Stations

Station Location Temp. Windchill Dew Point Humidity Wind Precip. Elev Updated Type
                   

Watches & Warnings

There are currently no watches in effect.